HLLB

Details ICAO HLLB (BEN)
Name BENINA
Region Libya
Timezone Africa/Tripoli (UTC+2.0)
Plans Departing 51
Arriving 60
Stats Elevation 433 ft / 132 m (AMSL)
Location 32.096860° 20.269438°
Runways 2
Magnetic Variation 3.582° E
Sunrise 2018-05-24 03:37:53 UTC / 2018-05-24 05:37:53 Local
Sunset 2018-05-24 17:36:30 UTC / 2018-05-24 19:36:30 Local
Advertisement - Login to hide

Runways

ID Width Length Bearing (true) Bearing (mag) Surface Threshold Offset Overrun Length
15L 148 ft / 45 m 11,754 ft / 3,583 m 150.60° 147.02° Asphalt 0 ft / 0 m 974 ft / 297 m
15R 148 ft / 45 m 11,754 ft / 3,583 m 150.54° 146.96° Asphalt 0 ft / 0 m 962 ft / 293 m
33L 148 ft / 45 m 11,754 ft / 3,583 m 330.55° 326.97° Asphalt 0 ft / 0 m 965 ft / 294 m
33R 148 ft / 45 m 11,754 ft / 3,583 m 330.61° 327.03° Asphalt 0 ft / 0 m 965 ft / 294 m

Approach Navaids

Runway Type Ident Frequency Range Bearing (true) Bearing (mag) Slope Elevation
15L Localiser IBNI 110.30 MHz 18 nm / 33 km 150.60° 147.02° - 433 ft / 132 m (AMSL)
15L Glidescope IBNI 110.30 MHz 10 nm / 19 km 150.60° 147.02° 2.50° 433 ft / 132 m (AMSL)

Map

Weather


0- 5 10 15 20 25 30 35+ Temperature / ° C

Clouds and Precipitation
Forecast for 2018-05-24 00:00 UTC. Updated 4 hours ago

Ground ~20,000 ft ~40,000 ft Winds

METAR

HLLB 240230Z 02015KT 7000 BR NSC 18/16 Q1016

TAF

TAF HLLB 232300Z 2400/2424 36012KT 8000 FEW030 SCT080= TAF AMD KHMN 240034Z 2400/2502 24009KT 9999 FEW200 QNH2994INS BECMG 2403/2404 VRB06KT 9999 SKC QNH2999INS BECMG 2415/2416 18012KT 9999 SKC QNH3013INS BECMG 2420/2421 18015G25KT 9999 SKC QNH3000INS BECMG 2500/2501 20012KT 9999 SKC QNH3001INS TX33/2400Z TN16/2412Z

Frequencies

Ground 121.30 MHz GND
Approach 127.00 MHz ARR
Approach 129.20 MHz BENGHAZI APP
Tower 118.10 MHz TWR
Approach 126.50 MHz BENGHAZI APP
Departure 127.00 MHz DEP
Warning: Do not use this data for real-world aviation or navigation. No guarantee of current accuracy is given.